Aviation Digital Data Service (ADDS)

Output produced by METARs form (0540 UTC 19 February 2019)
found at http://www.aviationweather.gov/metar/data/
 
Forecast for: FIMP (PLAISANCE , MU)
Text: TAF FIMP 190530Z 1906/2012 05010KT 9999 SCT017
Forecast period: 0600 UTC 19 February 2019 to 1200 UTC 20 February 2019
Forecast type: FROM: standard forecast or significant change
Winds: from the NE (50 degrees) at 12 MPH (10 knots; 5.1 m/s)
Visibility: 6 or more miles 10+ km)
Ceiling: at least 12,000 feet AGL
Clouds: scattered clouds at 1700 feet AGL
Weather: no significant weather forecast for this period
Text: PROB30
Forecast period: 0900 to 1200 UTC 19 February 2019
Forecast type: TEMPORARY: The following changes expected for less than half the time period
Visibility: 4 miles (7 km)
Ceiling: 1600 feet AGL
Clouds: few clouds at 1000 feet AGL
few clouds at 1400 feet AGL
broken clouds at 1600 feet AGL
Weather: -SHRA  (light rain showers)